createdAt,value
2023-04-01T00:01:09.100Z,98844.03
2023-04-01T00:03:36.463Z,98849.91
2023-04-01T00:06:03.528Z,98851.31
2023-04-01T00:08:30.733Z,98851.47
2023-04-01T00:10:58.310Z,98852.28
2023-04-01T00:13:27.499Z,98856.75
2023-04-01T00:15:56.221Z,98856.75
2023-04-01T00:18:23.202Z,98855.50
2023-04-01T00:20:51.478Z,98839.91
2023-04-01T00:23:20.058Z,98845.19
2023-04-01T00:25:49.386Z,98848.41
2023-04-01T00:28:20.655Z,98848.66
2023-04-01T00:30:48.257Z,98850.19
2023-04-01T00:33:15.224Z,98855.59
2023-04-01T00:35:43.145Z,98846.81
2023-04-01T00:38:10.011Z,98841.75
2023-04-01T00:40:40.169Z,98858.34
2023-04-01T00:43:15.564Z,98850.38
2023-04-01T00:45:43.738Z,98845.94
2023-04-01T00:48:15.669Z,98853.88
2023-04-01T00:50:44.464Z,98842.53
2023-04-01T00:53:11.618Z,98834.59
2023-04-01T00:55:40.773Z,98845.19
2023-04-01T00:58:10.691Z,98846.63
2023-04-01T01:00:37.715Z,98840.47
2023-04-01T01:03:04.491Z,98838.69
2023-04-01T01:05:49.501Z,98844.81
2023-04-01T01:08:43.298Z,98840.13
2023-04-01T01:11:14.219Z,98829.63
2023-04-01T01:14:00.054Z,98833.25
2023-04-01T01:16:43.973Z,98835.78
2023-04-01T01:19:49.508Z,98840.91
2023-04-01T01:22:40.575Z,98826.72
2023-04-01T01:25:10.225Z,98829.25
2023-04-01T01:27:39.401Z,98835.63
2023-04-01T01:30:21.636Z,98823.50
2023-04-01T01:32:51.403Z,98820.72
2023-04-01T01:35:18.714Z,98821.56
2023-04-01T01:37:47.176Z,98820.44
2023-04-01T01:40:15.229Z,98826.88
2023-04-01T01:42:47.441Z,98825.88
2023-04-01T01:45:16.094Z,98826.47
2023-04-01T01:47:43.523Z,98818.66
2023-04-01T01:50:10.920Z,98816.84
2023-04-01T01:52:37.611Z,98822.84
2023-04-01T01:55:04.861Z,98814.75
2023-04-01T01:57:35.621Z,98819.66
2023-04-01T02:00:09.099Z,98819.66
2023-04-01T02:02:35.921Z,98827.16
2023-04-01T02:05:02.978Z,98828.16
2023-04-01T02:07:33.564Z,98828.53
2023-04-01T02:10:00.581Z,98826.03
2023-04-01T02:12:28.217Z,98824.34
2023-04-01T02:14:57.876Z,98838.56
2023-04-01T02:17:29.451Z,98831.56
2023-04-01T02:20:23.585Z,98840.47
2023-04-01T02:22:56.376Z,98837.84
2023-04-01T02:25:26.271Z,98842.16
2023-04-01T02:27:53.547Z,98849.03
2023-04-01T02:30:20.784Z,98855.41
2023-04-01T02:32:47.736Z,98858.34
2023-04-01T02:35:17.293Z,98853.25
2023-04-01T02:37:44.968Z,98848.91
2023-04-01T02:40:13.971Z,98848.06
2023-04-01T02:42:41.152Z,98846.53
2023-04-01T02:45:09.173Z,98840.81
2023-04-01T02:47:36.019Z,98851.25
2023-04-01T02:50:03.096Z,98862.13
2023-04-01T02:52:30.658Z,98852.38
2023-04-01T02:54:58.297Z,98848.03
2023-04-01T02:57:25.914Z,98856.22
2023-04-01T02:59:53.035Z,98846.88
2023-04-01T03:02:19.900Z,98858.19
2023-04-01T03:04:46.970Z,98854.94
2023-04-01T03:07:14.074Z,98865.53
2023-04-01T03:09:41.145Z,98851.72
2023-04-01T03:12:07.902Z,98869.97
2023-04-01T03:14:34.573Z,98872.50
2023-04-01T03:17:01.953Z,98870.56
2023-04-01T03:19:28.723Z,98869.34
2023-04-01T03:21:58.465Z,98869.47
2023-04-01T03:24:25.161Z,98868.66
2023-04-01T03:26:52.109Z,98878.50
2023-04-01T03:29:18.849Z,98875.75
2023-04-01T03:31:45.830Z,98885.34
2023-04-01T03:34:12.502Z,98877.56
2023-04-01T03:36:39.271Z,98878.50
2023-04-01T03:39:06.344Z,98880.19
2023-04-01T03:41:33.221Z,98880.19
2023-04-01T03:43:59.914Z,98886.91
2023-04-01T03:46:26.704Z,98879.09
2023-04-01T03:48:53.468Z,98882.44
2023-04-01T03:51:20.205Z,98884.13
2023-04-01T03:53:47.027Z,98883.16
2023-04-01T03:56:13.776Z,98888.81
2023-04-01T03:58:40.617Z,98884.38
2023-04-01T04:01:24.417Z,98879.47
2023-04-01T04:03:52.148Z,98888.97
2023-04-01T04:06:19.641Z,98879.34
2023-04-01T04:08:46.547Z,98883.81
2023-04-01T04:11:13.278Z,98895.81
2023-04-01T04:13:40.020Z,98886.91
2023-04-01T04:16:06.844Z,98898.06
2023-04-01T04:18:34.294Z,98889.66
2023-04-01T04:21:01.073Z,98903.88
2023-04-01T04:23:28.282Z,98903.63
2023-04-01T04:26:04.391Z,98900.25
2023-04-01T04:28:31.192Z,98900.25
2023-04-01T04:30:58.003Z,98902.78
2023-04-01T04:33:25.694Z,98912.41
2023-04-01T04:35:52.811Z,98911.69
2023-04-01T04:38:19.545Z,98908.66
2023-04-01T04:40:46.233Z,98907.69
2023-04-01T04:43:14.669Z,98904.91
2023-04-01T04:45:41.812Z,98906.84
2023-04-01T04:48:19.623Z,98911.06
2023-04-01T04:50:50.394Z,98908.41
2023-04-01T04:53:18.177Z,98901.44
2023-04-01T04:55:46.215Z,98914.09
2023-04-01T04:58:12.982Z,98908.91
2023-04-01T05:00:39.718Z,98916.03
2023-04-01T05:03:06.507Z,98918.94
2023-04-01T05:05:33.580Z,98914.47
2023-04-01T05:08:00.795Z,98911.56
2023-04-01T05:10:27.537Z,98924.34
2023-04-01T05:12:54.187Z,98921.94
2023-04-01T05:15:20.887Z,98921.09
2023-04-01T05:17:47.664Z,98928.22
2023-04-01T05:20:15.980Z,98926.41
2023-04-01T05:22:43.049Z,98934.34
2023-04-01T05:25:09.967Z,98937.00
2023-04-01T05:27:36.706Z,98929.78
2023-04-01T05:30:03.884Z,98936.63
2023-04-01T05:32:32.280Z,98945.25
2023-04-01T05:34:59.026Z,98931.19
2023-04-01T05:37:25.784Z,98937.31
2023-04-01T05:39:52.433Z,98937.47
2023-04-01T05:42:19.109Z,98943.59
2023-04-01T05:44:45.887Z,98950.44
2023-04-01T05:47:12.583Z,98950.44
2023-04-01T05:49:39.235Z,98950.44
2023-04-01T05:52:06.035Z,98953.34
2023-04-01T05:54:32.842Z,98952.38
2023-04-01T05:56:59.591Z,98956.81
2023-04-01T05:59:26.355Z,98955.28
2023-04-01T06:01:53.136Z,98956.50
2023-04-01T06:04:19.945Z,98959.28
2023-04-01T06:06:46.704Z,98954.84
2023-04-01T06:09:20.030Z,98959.28
2023-04-01T06:11:57.339Z,98962.88
2023-04-01T06:14:23.994Z,98959.28
2023-04-01T06:16:56.768Z,98967.91
2023-04-01T06:19:29.027Z,98961.53
2023-04-01T06:21:55.742Z,98961.53
2023-04-01T06:24:51.840Z,98969.38
2023-04-01T06:27:41.075Z,98970.56
2023-04-01T06:30:08.467Z,98969.03
2023-04-01T06:33:07.470Z,98980.06
2023-04-01T06:35:39.697Z,98982.72
2023-04-01T06:38:18.627Z,98981.88
2023-04-01T06:40:51.550Z,98978.16
2023-04-01T06:43:39.453Z,98987.06
2023-04-01T06:46:27.679Z,98983.69
2023-04-01T06:49:13.698Z,98984.28
2023-04-01T06:51:52.778Z,98988.59
2023-04-01T06:54:37.455Z,98988.00
2023-04-01T06:57:34.145Z,98994.72
2023-04-01T07:00:12.365Z,98990.41
2023-04-01T07:03:12.098Z,99001.81
2023-04-01T07:05:39.249Z,99000.28
2023-04-01T07:08:10.548Z,98995.94
2023-04-01T07:10:52.679Z,99008.47
2023-04-01T07:13:34.265Z,99004.63
2023-04-01T07:16:25.845Z,99011.72
2023-04-01T07:19:13.916Z,99018.22
2023-04-01T07:21:45.112Z,99017.50
2023-04-01T07:24:18.555Z,99016.78
2023-04-01T07:26:45.664Z,99021.13
2023-04-01T07:29:14.668Z,99031.81
2023-04-01T07:31:50.521Z,99035.31
2023-04-01T07:34:56.089Z,99024.84
2023-04-01T07:37:46.535Z,99036.16
2023-04-01T07:40:25.591Z,99035.59
2023-04-01T07:43:07.559Z,99037.97
2023-04-01T07:45:37.176Z,99040.50
2023-04-01T07:48:34.120Z,99046.25
2023-04-01T07:51:12.508Z,99048.91
2023-04-01T07:54:08.194Z,99052.00
2023-04-01T07:56:57.259Z,99054.53
2023-04-01T07:59:32.179Z,99065.13
2023-04-01T08:02:34.322Z,99060.78
2023-04-01T08:05:08.481Z,99067.78
2023-04-01T08:07:35.224Z,99078.38
2023-04-01T08:10:12.466Z,99071.59
2023-04-01T08:12:51.342Z,99076.78
2023-04-01T08:16:00.215Z,99086.78
2023-04-01T08:18:51.938Z,99078.81
2023-04-01T08:21:25.719Z,99095.66
2023-04-01T08:24:01.054Z,99095.56
2023-04-01T08:26:37.449Z,99105.91
2023-04-01T08:29:15.074Z,99106.88
2023-04-01T08:31:44.885Z,99102.66
2023-04-01T08:34:19.510Z,99111.22
2023-04-01T08:36:51.815Z,99111.91
2023-04-01T08:39:32.074Z,99118.88
2023-04-01T08:42:17.621Z,99121.34
2023-04-01T08:45:01.572Z,99123.84
2023-04-01T08:47:39.980Z,99116.50
2023-04-01T08:50:31.431Z,99119.00
2023-04-01T08:53:21.521Z,99124.28
2023-04-01T08:56:02.699Z,99125.88
2023-04-01T08:58:48.532Z,99127.66
2023-04-01T09:01:52.283Z,99137.78
2023-04-01T09:04:42.765Z,99139.34
2023-04-01T09:07:41.483Z,99142.94
2023-04-01T09:10:31.691Z,99141.38
2023-04-01T09:13:21.566Z,99144.03
2023-04-01T09:16:26.105Z,99154.22
2023-04-01T09:19:11.589Z,99152.53
2023-04-01T09:22:04.531Z,99160.00
2023-04-01T09:24:49.666Z,99150.81
2023-04-01T09:27:32.045Z,99155.16
2023-04-01T09:30:15.498Z,99159.22
2023-04-01T09:32:42.208Z,99155.50
2023-04-01T09:35:08.984Z,99161.63
2023-04-01T09:37:37.805Z,99168.63
2023-04-01T09:40:19.777Z,99181.03
2023-04-01T09:42:50.490Z,99170.94
2023-04-01T09:45:32.533Z,99178.88
2023-04-01T09:48:27.571Z,99181.16
2023-04-01T09:51:13.261Z,99188.38
2023-04-01T09:53:42.913Z,99184.75
2023-04-01T09:56:28.608Z,99191.03
2023-04-01T09:59:07.308Z,99198.63
2023-04-01T10:01:49.315Z,99191.63
2023-04-01T10:04:31.067Z,99202.63
2023-04-01T10:07:19.576Z,99194.16
2023-04-01T10:10:11.925Z,99202.72
2023-04-01T10:12:43.297Z,99211.03
2023-04-01T10:15:44.080Z,99207.75
2023-04-01T10:18:26.031Z,99196.69
2023-04-01T10:21:22.089Z,99207.75
2023-04-01T10:24:14.912Z,99212.94
2023-04-01T10:27:18.695Z,99215.72
2023-04-01T10:30:06.772Z,99219.66
2023-04-01T10:32:48.725Z,99218.13
2023-04-01T10:35:37.530Z,99222.94
2023-04-01T10:38:04.169Z,99217.63
2023-04-01T10:41:20.940Z,99226.78
2023-04-01T10:44:19.203Z,99230.16
2023-04-01T10:46:54.999Z,99237.72
2023-04-01T10:49:43.020Z,99245.56
2023-04-01T10:52:28.660Z,99243.28
2023-04-01T10:55:29.413Z,99250.97
2023-04-01T10:58:14.361Z,99253.63
2023-04-01T11:01:02.303Z,99250.16
2023-04-01T11:03:53.488Z,99256.66
2023-04-01T11:06:40.122Z,99268.84
2023-04-01T11:09:44.598Z,99253.03
2023-04-01T11:12:49.779Z,99262.91
2023-04-01T11:15:41.090Z,99258.84
2023-04-01T11:18:26.662Z,99260.88
2023-04-01T11:21:26.534Z,99276.19
2023-04-01T11:24:06.886Z,99275.69
2023-04-01T11:26:52.841Z,99268.34
2023-04-01T11:30:11.162Z,99279.78
2023-04-01T11:33:03.946Z,99282.06
2023-04-01T11:35:48.848Z,99283.13
2023-04-01T11:38:52.771Z,99274.84
2023-04-01T11:41:45.269Z,99286.91
2023-04-01T11:44:21.063Z,99284.94
2023-04-01T11:47:15.976Z,99302.41
2023-04-01T11:50:05.318Z,99287.59
2023-04-01T11:52:54.008Z,99302.41
2023-04-01T11:55:33.741Z,99312.56
2023-04-01T11:58:16.177Z,99315.22
2023-04-01T12:00:52.204Z,99313.63
2023-04-01T12:03:38.066Z,99325.44
2023-04-01T12:07:00.710Z,99324.59
2023-04-01T12:09:43.884Z,99328.81
2023-04-01T12:12:54.094Z,99325.78
2023-04-01T12:15:30.247Z,99338.56
2023-04-01T12:18:19.211Z,99335.66
2023-04-01T12:20:48.861Z,99345.78
2023-04-01T12:23:27.735Z,99341.94
2023-04-01T12:25:54.400Z,99354.69
2023-04-01T12:28:24.421Z,99349.00
2023-04-01T12:31:14.827Z,99347.44
2023-04-01T12:34:06.563Z,99350.09
2023-04-01T12:36:51.710Z,99351.75
2023-04-01T12:39:40.892Z,99364.66
2023-04-01T12:42:22.666Z,99364.53
2023-04-01T12:45:14.176Z,99357.31
2023-04-01T12:47:56.174Z,99386.25
2023-04-01T12:50:32.081Z,99376.50
2023-04-01T12:53:12.101Z,99378.75
2023-04-01T12:55:43.499Z,99377.09
2023-04-01T12:58:38.102Z,99380.72
2023-04-01T13:01:17.483Z,99400.47
2023-04-01T13:04:22.465Z,99389.16
2023-04-01T13:07:26.667Z,99392.16
2023-04-01T13:10:15.449Z,99402.44
2023-04-01T13:13:14.712Z,99398.94
2023-04-01T13:15:54.015Z,99408.44
2023-04-01T13:18:33.463Z,99409.28
2023-04-01T13:21:41.954Z,99414.25
2023-04-01T13:24:21.705Z,99420.66
2023-04-01T13:26:57.102Z,99427.38
2023-04-01T13:29:34.742Z,99418.22
2023-04-01T13:32:15.492Z,99425.81
2023-04-01T13:34:49.912Z,99431.94
2023-04-01T13:37:25.944Z,99431.38
2023-04-01T13:40:04.232Z,99429.19
2023-04-01T13:42:48.661Z,99434.50
2023-04-01T13:45:19.597Z,99433.41
2023-04-01T13:48:01.505Z,99435.94
2023-04-01T13:50:57.697Z,99444.13
2023-04-01T13:53:39.520Z,99442.44
2023-04-01T13:56:13.434Z,99438.72
2023-04-01T13:59:12.504Z,99444.03
2023-04-01T14:01:45.598Z,99452.09
2023-04-01T14:04:15.379Z,99451.63
2023-04-01T14:07:01.114Z,99449.81
2023-04-01T14:09:53.996Z,99472.69
2023-04-01T14:12:54.214Z,99471.25
2023-04-01T14:15:26.483Z,99463.28
2023-04-01T14:18:08.729Z,99467.28
2023-04-01T14:20:41.925Z,99472.94
2023-04-01T14:23:41.392Z,99474.63
2023-04-01T14:27:06.418Z,99476.44
2023-04-01T14:29:41.815Z,99478.50
2023-04-01T14:32:14.458Z,99484.38
2023-04-01T14:34:52.494Z,99484.75
2023-04-01T14:37:37.898Z,99502.22
2023-04-01T14:40:19.891Z,99490.06
2023-04-01T14:42:55.715Z,99493.91
2023-04-01T14:45:34.849Z,99490.16
2023-04-01T14:48:20.514Z,99500.66
2023-04-01T14:50:49.015Z,99498.88
2023-04-01T14:53:25.529Z,99498.88
2023-04-01T14:56:00.666Z,99504.38
2023-04-01T14:58:43.023Z,99510.44
2023-04-01T15:01:16.573Z,99505.97
2023-04-01T15:04:24.277Z,99506.66
2023-04-01T15:06:55.542Z,99514.28
2023-04-01T15:09:53.954Z,99527.31
2023-04-01T15:12:31.500Z,99525.97
2023-04-01T15:15:18.680Z,99521.41
2023-04-01T15:17:57.191Z,99525.00
2023-04-01T15:20:45.186Z,99537.19
2023-04-01T15:23:45.743Z,99530.44
2023-04-01T15:26:23.432Z,99534.66
2023-04-01T15:29:18.302Z,99537.69
2023-04-01T15:31:50.201Z,99540.91
2023-04-01T15:34:44.614Z,99553.34
2023-04-01T15:37:24.303Z,99540.56
2023-04-01T15:39:59.218Z,99555.88
2023-04-01T15:42:41.150Z,99561.28
2023-04-01T15:45:28.758Z,99571.25
2023-04-01T15:48:27.452Z,99567.66
2023-04-01T15:51:03.156Z,99568.28
2023-04-01T15:53:51.871Z,99569.59
2023-04-01T15:57:03.954Z,99576.72
2023-04-01T16:00:15.429Z,99579.97
2023-04-01T16:02:47.567Z,99591.31
2023-04-01T16:05:35.099Z,99580.44
2023-04-01T16:08:11.597Z,99589.97
2023-04-01T16:11:10.250Z,99596.84
2023-04-01T16:14:04.562Z,99593.72
2023-04-01T16:16:39.956Z,99604.31
2023-04-01T16:19:51.782Z,99601.56
2023-04-01T16:22:27.985Z,99615.44
2023-04-01T16:25:19.703Z,99609.75
2023-04-01T16:27:54.793Z,99611.19
2023-04-01T16:31:01.599Z,99614.81
2023-04-01T16:33:49.578Z,99617.72
2023-04-01T16:36:34.768Z,99619.63
2023-04-01T16:39:23.902Z,99622.53
2023-04-01T16:41:56.425Z,99627.94
2023-04-01T16:44:28.380Z,99626.13
2023-04-01T16:46:59.171Z,99637.81
2023-04-01T16:49:47.708Z,99633.59
2023-04-01T16:52:17.689Z,99642.38
2023-04-01T16:54:59.651Z,99634.41
2023-04-01T16:57:33.021Z,99641.03
2023-04-01T17:00:06.790Z,99647.06
2023-04-01T17:02:39.764Z,99653.34
2023-04-01T17:05:16.761Z,99645.50
2023-04-01T17:08:27.354Z,99659.09
2023-04-01T17:10:59.520Z,99676.94
2023-04-01T17:13:46.253Z,99668.25
2023-04-01T17:16:38.693Z,99679.59
2023-04-01T17:19:48.304Z,99673.31
2023-04-01T17:22:28.054Z,99683.81
2023-04-01T17:25:06.768Z,99690.91
2023-04-01T17:28:04.644Z,99689.00
2023-04-01T17:30:47.191Z,99699.81
2023-04-01T17:33:43.515Z,99698.38
2023-04-01T17:36:31.856Z,99702.38
2023-04-01T17:39:21.439Z,99699.72
2023-04-01T17:42:00.823Z,99710.41
2023-04-01T17:45:02.356Z,99720.31
2023-04-01T17:47:47.982Z,99723.16
2023-04-01T17:50:45.916Z,99725.22
2023-04-01T17:53:20.820Z,99729.31
2023-04-01T17:56:06.363Z,99734.72
2023-04-01T17:58:48.727Z,99738.22
2023-04-01T18:01:39.557Z,99745.34
2023-04-01T18:04:17.428Z,99743.66
2023-04-01T18:07:29.455Z,99747.78
2023-04-01T18:10:06.510Z,99745.47
2023-04-01T18:13:05.713Z,99761.25
2023-04-01T18:15:55.154Z,99756.19
2023-04-01T18:18:41.058Z,99770.03
2023-04-01T18:21:28.875Z,99763.19
2023-04-01T18:24:02.883Z,99776.63
2023-04-01T18:26:35.189Z,99777.72
2023-04-01T18:29:23.782Z,99784.59
2023-04-01T18:31:53.226Z,99786.28
2023-04-01T18:34:47.658Z,99789.03
2023-04-01T18:37:36.177Z,99787.25
2023-04-01T18:40:37.435Z,99796.13
2023-04-01T18:43:10.389Z,99804.63
2023-04-01T18:45:42.051Z,99804.09
2023-04-01T18:48:46.542Z,99811.44
2023-04-01T18:51:19.230Z,99808.88
2023-04-01T18:53:59.168Z,99816.50
2023-04-01T18:56:43.164Z,99831.69
2023-04-01T18:59:19.186Z,99835.19
2023-04-01T19:01:54.081Z,99829.22
2023-04-01T19:04:38.695Z,99828.59
2023-04-01T19:07:42.522Z,99833.56
2023-04-01T19:10:47.703Z,99828.75
2023-04-01T19:13:40.676Z,99843.19
2023-04-01T19:16:18.971Z,99850.88
2023-04-01T19:19:21.843Z,99855.59
2023-04-01T19:22:07.240Z,99860.69
2023-04-01T19:24:58.867Z,99860.59
2023-04-01T19:27:39.054Z,99866.22
2023-04-01T19:30:16.517Z,99873.13
2023-04-01T19:32:48.681Z,99862.06
2023-04-01T19:35:47.486Z,99878.50
2023-04-01T19:38:36.793Z,99870.22
2023-04-01T19:41:18.746Z,99878.69
2023-04-01T19:43:57.549Z,99888.47
2023-04-01T19:46:30.137Z,99884.34
2023-04-01T19:49:06.126Z,99892.31
2023-04-01T19:51:57.578Z,99900.78
2023-04-01T19:54:46.342Z,99903.88
2023-04-01T19:57:22.480Z,99907.69
2023-04-01T19:59:58.534Z,99916.41
2023-04-01T20:02:37.119Z,99920.19
2023-04-01T20:05:38.642Z,99924.44
2023-04-01T20:08:11.030Z,99936.34
2023-04-01T20:10:50.963Z,99938.41
2023-04-01T20:13:28.965Z,99948.94
2023-04-01T20:16:07.444Z,99959.00
2023-04-01T20:18:40.492Z,99969.50
2023-04-01T20:21:16.507Z,99976.59
2023-04-01T20:23:46.556Z,99976.41
2023-04-01T20:26:15.360Z,99975.84
2023-04-01T20:29:00.406Z,99987.09
2023-04-01T20:31:32.676Z,99991.97
2023-04-01T20:34:27.307Z,99989.75
2023-04-01T20:37:08.322Z,100006.66
2023-04-01T20:39:46.280Z,100012.19
2023-04-01T20:42:43.509Z,100013.97
2023-04-01T20:45:15.050Z,100021.69
2023-04-01T20:48:03.673Z,100021.09
2023-04-01T20:50:35.585Z,100030.78
2023-04-01T20:53:17.362Z,100035.47
2023-04-01T20:55:56.423Z,100041.75
2023-04-01T20:58:32.132Z,100043.75
2023-04-01T21:01:27.489Z,100051.97
2023-04-01T21:04:43.309Z,100048.91
2023-04-01T21:07:23.611Z,100056.47
2023-04-01T21:10:27.566Z,100064.81
2023-04-01T21:13:16.021Z,100072.81
2023-04-01T21:15:54.781Z,100074.00
2023-04-01T21:18:33.673Z,100083.03
2023-04-01T21:21:12.470Z,100090.78
2023-04-01T21:24:16.946Z,100091.03
2023-04-01T21:26:59.023Z,100096.41
2023-04-01T21:29:35.240Z,100119.78
2023-04-01T21:32:25.087Z,100106.75
2023-04-01T21:35:29.358Z,100124.44
2023-04-01T21:38:26.878Z,100119.22
2023-04-01T21:41:06.876Z,100136.25
2023-04-01T21:43:59.804Z,100135.66
2023-04-01T21:46:31.305Z,100146.09
2023-04-01T21:49:08.164Z,100152.16
2023-04-01T21:51:47.607Z,100153.19
2023-04-01T21:54:51.695Z,100155.38
2023-04-01T21:57:21.403Z,100163.84
2023-04-01T22:00:17.601Z,100172.66
2023-04-01T22:03:27.418Z,100179.28
2023-04-01T22:06:16.692Z,100191.81
2023-04-01T22:09:09.615Z,100188.16
2023-04-01T22:12:04.129Z,100194.84
2023-04-01T22:14:33.855Z,100210.44
2023-04-01T22:17:09.256Z,100208.06
2023-04-01T22:19:57.225Z,100215.78
2023-04-01T22:22:27.119Z,100215.72
2023-04-01T22:25:16.089Z,100225.44
2023-04-01T22:27:45.751Z,100232.44
2023-04-01T22:30:25.458Z,100236.78
2023-04-01T22:32:57.327Z,100236.09
2023-04-01T22:35:26.578Z,100241.09
2023-04-01T22:38:28.540Z,100248.81
2023-04-01T22:41:13.882Z,100258.25
2023-04-01T22:43:42.459Z,100254.84
2023-04-01T22:46:19.100Z,100265.69
2023-04-01T22:48:50.600Z,100273.81
2023-04-01T22:51:39.336Z,100270.91
2023-04-01T22:54:15.707Z,100286.03
2023-04-01T22:56:50.246Z,100284.81
2023-04-01T22:59:29.076Z,100290.53
2023-04-01T23:02:00.145Z,100298.47
2023-04-01T23:04:33.655Z,100305.63
2023-04-01T23:07:05.819Z,100313.47
2023-04-01T23:09:36.654Z,100304.69
2023-04-01T23:12:14.148Z,100319.50
2023-04-01T23:14:48.062Z,100327.44
2023-04-01T23:17:43.835Z,100333.31
2023-04-01T23:20:34.024Z,100331.63
2023-04-01T23:23:00.774Z,100338.97
2023-04-01T23:25:30.377Z,100350.28
2023-04-01T23:27:57.087Z,100347.56
2023-04-01T23:30:39.164Z,100346.56
2023-04-01T23:33:12.605Z,100371.69
2023-04-01T23:36:14.714Z,100368.19
2023-04-01T23:38:43.890Z,100376.78
2023-04-01T23:41:23.634Z,100382.25
2023-04-01T23:43:56.518Z,100386.88
2023-04-01T23:46:23.635Z,100396.66
2023-04-01T23:48:50.438Z,100388.31
2023-04-01T23:51:26.830Z,100406.09
2023-04-01T23:54:11.666Z,100407.03
2023-04-01T23:56:54.563Z,100419.47
2023-04-01T23:59:32.758Z,100416.13
